sensor_id;sensor_type;location;lat;lon;timestamp;pressure;altitude;pressure_sealevel;temperature;humidity
63552;BME280;49698;48.072;7.800;2023-11-21T00:00:18;98884.59;;;8.92;100.00
63552;BME280;49698;48.072;7.800;2023-11-21T00:02:46;98877.63;;;8.91;100.00
63552;BME280;49698;48.072;7.800;2023-11-21T00:05:14;98877.91;;;8.90;100.00
63552;BME280;49698;48.072;7.800;2023-11-21T00:07:44;98878.19;;;8.88;100.00
63552;BME280;49698;48.072;7.800;2023-11-21T00:10:11;98869.34;;;8.88;100.00
63552;BME280;49698;48.072;7.800;2023-11-21T00:12:40;98866.94;;;8.86;100.00
63552;BME280;49698;48.072;7.800;2023-11-21T00:15:09;98861.09;;;8.84;100.00
63552;BME280;49698;48.072;7.800;2023-11-21T00:17:38;98866.44;;;8.84;100.00
63552;BME280;49698;48.072;7.800;2023-11-21T00:20:06;98856.00;;;8.82;100.00
63552;BME280;49698;48.072;7.800;2023-11-21T00:22:35;98858.97;;;8.81;100.00
63552;BME280;49698;48.072;7.800;2023-11-21T00:25:05;98855.19;;;8.82;100.00
63552;BME280;49698;48.072;7.800;2023-11-21T00:27:33;98849.34;;;8.80;100.00
63552;BME280;49698;48.072;7.800;2023-11-21T00:52:08;98856.13;;;8.72;100.00
63552;BME280;49698;48.072;7.800;2023-11-21T00:54:36;98866.84;;;8.72;100.00
63552;BME280;49698;48.072;7.800;2023-11-21T00:57:04;98862.56;;;8.71;100.00
63552;BME280;49698;48.072;7.800;2023-11-21T00:59:32;98858.00;;;8.72;100.00
63552;BME280;49698;48.072;7.800;2023-11-21T01:02:01;98852.63;;;8.72;100.00
63552;BME280;49698;48.072;7.800;2023-11-21T01:04:30;98872.97;;;8.73;100.00
63552;BME280;49698;48.072;7.800;2023-11-21T01:06:59;98861.47;;;8.72;100.00
63552;BME280;49698;48.072;7.800;2023-11-21T01:09:28;98871.41;;;8.72;100.00
63552;BME280;49698;48.072;7.800;2023-11-21T01:11:56;98872.19;;;8.72;100.00
63552;BME280;49698;48.072;7.800;2023-11-21T01:14:26;98870.31;;;8.73;100.00
63552;BME280;49698;48.072;7.800;2023-11-21T01:16:54;98861.47;;;8.72;100.00
63552;BME280;49698;48.072;7.800;2023-11-21T01:19:22;98864.16;;;8.72;100.00
63552;BME280;49698;48.072;7.800;2023-11-21T01:21:50;98875.66;;;8.73;100.00
63552;BME280;49698;48.072;7.800;2023-11-21T01:24:18;98874.06;;;8.72;100.00
63552;BME280;49698;48.072;7.800;2023-11-21T01:26:47;98870.59;;;8.71;100.00
63552;BME280;49698;48.072;7.800;2023-11-21T01:29:17;98874.34;;;8.70;100.00
63552;BME280;49698;48.072;7.800;2023-11-21T01:31:46;98885.84;;;8.71;100.00
63552;BME280;49698;48.072;7.800;2023-11-21T01:34:13;98892.31;;;8.70;100.00
63552;BME280;49698;48.072;7.800;2023-11-21T01:36:41;98893.38;;;8.69;100.00
63552;BME280;49698;48.072;7.800;2023-11-21T01:39:10;98894.19;;;8.69;100.00
63552;BME280;49698;48.072;7.800;2023-11-21T01:41:41;98890.41;;;8.70;100.00
63552;BME280;49698;48.072;7.800;2023-11-21T01:44:12;98880.78;;;8.69;100.00
63552;BME280;49698;48.072;7.800;2023-11-21T01:46:40;98875.72;;;8.68;100.00
63552;BME280;49698;48.072;7.800;2023-11-21T01:49:09;98879.47;;;8.67;100.00
63552;BME280;49698;48.072;7.800;2023-11-21T01:51:41;98877.06;;;8.65;100.00
63552;BME280;49698;48.072;7.800;2023-11-21T01:54:10;98879.22;;;8.63;100.00
63552;BME280;49698;48.072;7.800;2023-11-21T01:56:41;98882.72;;;8.64;100.00
63552;BME280;49698;48.072;7.800;2023-11-21T01:59:08;98878.44;;;8.63;100.00
63552;BME280;49698;48.072;7.800;2023-11-21T02:01:38;98889.94;;;8.63;100.00
63552;BME280;49698;48.072;7.800;2023-11-21T02:04:07;98892.91;;;8.62;100.00
63552;BME280;49698;48.072;7.800;2023-11-21T02:06:36;98894.50;;;8.63;100.00
63552;BME280;49698;48.072;7.800;2023-11-21T02:09:04;98883.78;;;8.63;100.00
63552;BME280;49698;48.072;7.800;2023-11-21T02:11:32;98876.03;;;8.61;100.00
63552;BME280;49698;48.072;7.800;2023-11-21T02:14:01;98873.06;;;8.63;100.00
63552;BME280;49698;48.072;7.800;2023-11-21T02:16:29;98871.19;;;8.63;100.00
63552;BME280;49698;48.072;7.800;2023-11-21T02:19:01;98871.19;;;8.63;100.00
63552;BME280;49698;48.072;7.800;2023-11-21T02:21:31;98868.00;;;8.61;100.00
63552;BME280;49698;48.072;7.800;2023-11-21T02:24:02;98875.25;;;8.61;100.00
63552;BME280;49698;48.072;7.800;2023-11-21T02:26:30;98869.91;;;8.61;100.00
63552;BME280;49698;48.072;7.800;2023-11-21T02:28:59;98862.94;;;8.60;100.00
63552;BME280;49698;48.072;7.800;2023-11-21T02:34:00;98855.97;;;8.58;100.00
63552;BME280;49698;48.072;7.800;2023-11-21T02:36:29;98852.22;;;8.60;100.00
63552;BME280;49698;48.072;7.800;2023-11-21T02:38:57;98861.06;;;8.60;100.00
63552;BME280;49698;48.072;7.800;2023-11-21T02:41:25;98861.31;;;8.58;100.00
63552;BME280;49698;48.072;7.800;2023-11-21T02:43:54;98865.09;;;8.57;100.00
63552;BME280;49698;48.072;7.800;2023-11-21T02:46:22;98863.50;;;8.56;100.00
63552;BME280;49698;48.072;7.800;2023-11-21T02:48:50;98862.72;;;8.56;100.00
63552;BME280;49698;48.072;7.800;2023-11-21T02:51:21;98869.91;;;8.55;100.00
63552;BME280;49698;48.072;7.800;2023-11-21T02:53:49;98865.66;;;8.54;99.74
63552;BME280;49698;48.072;7.800;2023-11-21T02:56:18;98864.06;;;8.53;100.00
63552;BME280;49698;48.072;7.800;2023-11-21T02:58:47;98857.13;;;8.52;99.74
63552;BME280;49698;48.072;7.800;2023-11-21T03:01:14;98858.19;;;8.51;99.74
63552;BME280;49698;48.072;7.800;2023-11-21T03:03:43;98853.91;;;8.50;99.73
63552;BME280;49698;48.072;7.800;2023-11-21T03:06:12;98858.47;;;8.50;99.92
63552;BME280;49698;48.072;7.800;2023-11-21T03:08:42;98864.63;;;8.50;100.00
63552;BME280;49698;48.072;7.800;2023-11-21T03:11:10;98859.25;;;8.50;100.00
63552;BME280;49698;48.072;7.800;2023-11-21T03:13:39;98861.44;;;8.48;100.00
63552;BME280;49698;48.072;7.800;2023-11-21T03:16:08;98868.38;;;8.49;99.84
63552;BME280;49698;48.072;7.800;2023-11-21T03:18:36;98865.97;;;8.48;99.89
63552;BME280;49698;48.072;7.800;2023-11-21T03:21:05;98859.56;;;8.49;100.00
63552;BME280;49698;48.072;7.800;2023-11-21T03:29:00;98850.72;;;8.48;99.87
63552;BME280;49698;48.072;7.800;2023-11-21T03:31:28;98849.91;;;8.48;99.94
63552;BME280;49698;48.072;7.800;2023-11-21T03:33:56;98850.72;;;8.48;99.81
63552;BME280;49698;48.072;7.800;2023-11-21T03:36:24;98853.41;;;8.48;100.00
63552;BME280;49698;48.072;7.800;2023-11-21T03:38:52;98856.88;;;8.49;99.95
63552;BME280;49698;48.072;7.800;2023-11-21T03:41:22;98856.09;;;8.48;99.95
63552;BME280;49698;48.072;7.800;2023-11-21T03:43:50;98861.44;;;8.48;99.86
63552;BME280;49698;48.072;7.800;2023-11-21T03:46:19;98860.34;;;8.49;99.95
63552;BME280;49698;48.072;7.800;2023-11-21T03:48:47;98849.09;;;8.47;99.98
63552;BME280;49698;48.072;7.800;2023-11-21T03:51:15;98857.13;;;8.47;100.00
63552;BME280;49698;48.072;7.800;2023-11-21T03:53:43;98859.31;;;8.45;100.00
63552;BME280;49698;48.072;7.800;2023-11-21T03:56:13;98859.59;;;8.44;100.00
63552;BME280;49698;48.072;7.800;2023-11-21T03:58:41;98855.59;;;8.41;100.00
63552;BME280;49698;48.072;7.800;2023-11-21T04:01:09;98852.94;;;8.41;100.00
63552;BME280;49698;48.072;7.800;2023-11-21T04:03:38;98859.38;;;8.40;100.00
63552;BME280;49698;48.072;7.800;2023-11-21T04:06:08;98850.81;;;8.38;100.00
63552;BME280;49698;48.072;7.800;2023-11-21T04:08:36;98854.56;;;8.37;100.00
63552;BME280;49698;48.072;7.800;2023-11-21T04:11:05;98858.28;;;8.36;100.00
63552;BME280;49698;48.072;7.800;2023-11-21T04:13:33;98856.97;;;8.33;100.00
63552;BME280;49698;48.072;7.800;2023-11-21T04:16:00;98857.25;;;8.32;100.00
63552;BME280;49698;48.072;7.800;2023-11-21T04:18:30;98867.97;;;8.32;100.00
63552;BME280;49698;48.072;7.800;2023-11-21T04:20:59;98865.56;;;8.30;100.00
63552;BME280;49698;48.072;7.800;2023-11-21T04:23:29;98873.91;;;8.29;100.00
63552;BME280;49698;48.072;7.800;2023-11-21T04:25:57;98870.13;;;8.30;100.00
63552;BME280;49698;48.072;7.800;2023-11-21T04:28:25;98880.84;;;8.30;100.00
63552;BME280;49698;48.072;7.800;2023-11-21T04:30:53;98887.00;;;8.30;100.00
63552;BME280;49698;48.072;7.800;2023-11-21T04:33:22;98893.16;;;8.31;100.00
63552;BME280;49698;48.072;7.800;2023-11-21T04:35:50;98892.34;;;8.30;100.00
63552;BME280;49698;48.072;7.800;2023-11-21T04:38:20;98893.94;;;8.31;100.00
63552;BME280;49698;48.072;7.800;2023-11-21T04:40:48;98900.09;;;8.32;100.00
63552;BME280;49698;48.072;7.800;2023-11-21T04:43:16;98908.94;;;8.32;100.00
63552;BME280;49698;48.072;7.800;2023-11-21T04:45:44;98908.94;;;8.32;100.00
63552;BME280;49698;48.072;7.800;2023-11-21T04:48:12;98906.28;;;8.32;100.00
63552;BME280;49698;48.072;7.800;2023-11-21T04:50:40;98908.66;;;8.34;100.00
63552;BME280;49698;48.072;7.800;2023-11-21T04:53:08;98908.13;;;8.32;100.00
63552;BME280;49698;48.072;7.800;2023-11-21T04:55:40;98904.94;;;8.30;100.00
63552;BME280;49698;48.072;7.800;2023-11-21T04:58:09;98915.13;;;8.28;100.00
63552;BME280;49698;48.072;7.800;2023-11-21T05:00:38;98907.88;;;8.28;100.00
63552;BME280;49698;48.072;7.800;2023-11-21T05:03:06;98915.91;;;8.28;100.00
63552;BME280;49698;48.072;7.800;2023-11-21T05:05:35;98912.44;;;8.28;100.00
63552;BME280;49698;48.072;7.800;2023-11-21T05:08:03;98919.97;;;8.26;100.00
63552;BME280;49698;48.072;7.800;2023-11-21T05:10:31;98924.78;;;8.24;100.00
63552;BME280;49698;48.072;7.800;2023-11-21T05:13:01;98935.00;;;8.22;100.00
63552;BME280;49698;48.072;7.800;2023-11-21T05:15:29;98922.94;;;8.19;100.00
63552;BME280;49698;48.072;7.800;2023-11-21T05:17:57;98920.56;;;8.18;100.00
63552;BME280;49698;48.072;7.800;2023-11-21T05:20:26;98924.28;;;8.17;100.00
63552;BME280;49698;48.072;7.800;2023-11-21T05:22:54;98917.34;;;8.16;100.00
63552;BME280;49698;48.072;7.800;2023-11-21T05:25:22;98920.81;;;8.16;100.00
63552;BME280;49698;48.072;7.800;2023-11-21T05:27:50;98927.25;;;8.15;100.00
63552;BME280;49698;48.072;7.800;2023-11-21T05:30:21;98922.19;;;8.14;100.00
63552;BME280;49698;48.072;7.800;2023-11-21T05:32:49;98922.19;;;8.14;100.00
63552;BME280;49698;48.072;7.800;2023-11-21T05:35:17;98924.09;;;8.13;100.00
63552;BME280;49698;48.072;7.800;2023-11-21T05:37:45;98936.13;;;8.11;100.00
63552;BME280;49698;48.072;7.800;2023-11-21T05:40:14;98937.22;;;8.09;100.00
63552;BME280;49698;48.072;7.800;2023-11-21T05:42:44;98945.25;;;8.09;100.00
63552;BME280;49698;48.072;7.800;2023-11-21T05:45:12;98946.31;;;8.08;100.00
63552;BME280;49698;48.072;7.800;2023-11-21T05:47:42;98950.06;;;8.07;100.00
63552;BME280;49698;48.072;7.800;2023-11-21T05:50:13;98949.28;;;8.07;100.00
63552;BME280;49698;48.072;7.800;2023-11-21T05:52:42;98956.50;;;8.06;100.00
63552;BME280;49698;48.072;7.800;2023-11-21T05:55:11;98960.25;;;8.05;100.00
63552;BME280;49698;48.072;7.800;2023-11-21T05:57:41;98962.94;;;8.05;100.00
63552;BME280;49698;48.072;7.800;2023-11-21T06:00:11;98962.41;;;8.03;100.00
63552;BME280;49698;48.072;7.800;2023-11-21T06:02:46;98958.94;;;8.03;100.00
63552;BME280;49698;48.072;7.800;2023-11-21T06:05:18;98955.47;;;8.02;100.00
63552;BME280;49698;48.072;7.800;2023-11-21T06:07:46;98951.16;;;8.01;100.00
63552;BME280;49698;48.072;7.800;2023-11-21T06:10:14;98948.47;;;8.01;100.00
63552;BME280;49698;48.072;7.800;2023-11-21T06:12:44;98953.84;;;8.01;100.00
63552;BME280;49698;48.072;7.800;2023-11-21T06:15:12;98953.84;;;8.01;100.00
63552;BME280;49698;48.072;7.800;2023-11-21T06:17:42;98949.56;;;8.00;100.00
63552;BME280;49698;48.072;7.800;2023-11-21T06:20:13;98954.41;;;7.98;100.00
63552;BME280;49698;48.072;7.800;2023-11-21T06:22:42;98950.13;;;7.97;100.00
63552;BME280;49698;48.072;7.800;2023-11-21T06:25:12;98958.72;;;7.94;100.00
63552;BME280;49698;48.072;7.800;2023-11-21T06:27:42;98958.19;;;7.92;100.00
63552;BME280;49698;48.072;7.800;2023-11-21T06:30:11;98952.03;;;7.92;100.00
63552;BME280;49698;48.072;7.800;2023-11-21T06:32:41;98955.00;;;7.90;100.00
63552;BME280;49698;48.072;7.800;2023-11-21T06:35:14;98960.06;;;7.92;100.00
63552;BME280;49698;48.072;7.800;2023-11-21T06:37:42;98960.34;;;7.90;100.00
63552;BME280;49698;48.072;7.800;2023-11-21T06:40:14;98961.41;;;7.89;100.00
63552;BME280;49698;48.072;7.800;2023-11-21T06:42:42;98972.09;;;7.89;100.00
63552;BME280;49698;48.072;7.800;2023-11-21T06:45:11;98979.06;;;7.90;100.00
63552;BME280;49698;48.072;7.800;2023-11-21T06:47:40;98986.81;;;7.92;100.00
63552;BME280;49698;48.072;7.800;2023-11-21T06:50:09;98990.28;;;7.92;100.00
63552;BME280;49698;48.072;7.800;2023-11-21T06:52:39;98992.16;;;7.92;100.00
63552;BME280;49698;48.072;7.800;2023-11-21T06:55:08;98987.63;;;7.92;100.00
63552;BME280;49698;48.072;7.800;2023-11-21T06:57:36;98995.94;;;7.91;100.00
63552;BME280;49698;48.072;7.800;2023-11-21T07:00:05;98986.03;;;7.91;100.00
63552;BME280;49698;48.072;7.800;2023-11-21T07:02:35;98992.97;;;7.92;100.00
63552;BME280;49698;48.072;7.800;2023-11-21T07:05:04;98991.38;;;7.91;100.00
63552;BME280;49698;48.072;7.800;2023-11-21T07:07:32;98994.84;;;7.92;100.00
63552;BME280;49698;48.072;7.800;2023-11-21T07:10:04;98994.06;;;7.91;100.00
63552;BME280;49698;48.072;7.800;2023-11-21T07:12:32;98997.53;;;7.92;100.00
63552;BME280;49698;48.072;7.800;2023-11-21T07:15:00;99003.66;;;7.92;100.00
63552;BME280;49698;48.072;7.800;2023-11-21T07:17:29;98999.91;;;7.93;100.00
63552;BME280;49698;48.072;7.800;2023-11-21T07:19:58;99004.47;;;7.93;100.00
63552;BME280;49698;48.072;7.800;2023-11-21T07:22:26;99012.25;;;7.94;100.00
63552;BME280;49698;48.072;7.800;2023-11-21T07:24:55;99012.25;;;7.94;100.00
63552;BME280;49698;48.072;7.800;2023-11-21T07:27:25;99017.59;;;7.94;100.00
63552;BME280;49698;48.072;7.800;2023-11-21T07:29:53;99017.31;;;7.96;100.00
63552;BME280;49698;48.072;7.800;2023-11-21T07:32:21;99019.19;;;7.95;100.00
63552;BME280;49698;48.072;7.800;2023-11-21T07:34:49;99020.78;;;7.96;100.00
63552;BME280;49698;48.072;7.800;2023-11-21T07:37:17;99012.75;;;7.96;100.00
63552;BME280;49698;48.072;7.800;2023-11-21T07:39:46;99023.19;;;7.98;100.00
63552;BME280;49698;48.072;7.800;2023-11-21T07:42:14;99025.59;;;7.99;100.00
63552;BME280;49698;48.072;7.800;2023-11-21T07:44:44;99021.84;;;8.00;100.00
63552;BME280;49698;48.072;7.800;2023-11-21T07:47:13;99025.06;;;8.02;100.00
63552;BME280;49698;48.072;7.800;2023-11-21T07:49:41;99022.88;;;8.04;100.00
63552;BME280;49698;48.072;7.800;2023-11-21T07:52:10;99027.69;;;8.07;100.00
63552;BME280;49698;48.072;7.800;2023-11-21T07:54:38;99030.91;;;8.09;100.00
63552;BME280;49698;48.072;7.800;2023-11-21T07:57:06;99036.22;;;8.15;100.00
63552;BME280;49698;48.072;7.800;2023-11-21T07:59:34;99040.50;;;8.16;100.00
63552;BME280;49698;48.072;7.800;2023-11-21T08:02:04;99039.16;;;8.18;100.00
63552;BME280;49698;48.072;7.800;2023-11-21T08:04:32;99041.53;;;8.20;100.00
63552;BME280;49698;48.072;7.800;2023-11-21T08:07:01;99037.78;;;8.21;100.00
63552;BME280;49698;48.072;7.800;2023-11-21T08:09:30;99046.34;;;8.23;100.00
63552;BME280;49698;48.072;7.800;2023-11-21T08:11:59;99045.00;;;8.25;100.00
63552;BME280;49698;48.072;7.800;2023-11-21T08:14:29;99050.09;;;8.27;100.00
63552;BME280;49698;48.072;7.800;2023-11-21T08:16:57;99051.13;;;8.31;100.00
63552;BME280;49698;48.072;7.800;2023-11-21T08:19:27;99050.03;;;8.32;100.00
63552;BME280;49698;48.072;7.800;2023-11-21T08:21:55;99057.53;;;8.35;100.00
63552;BME280;49698;48.072;7.800;2023-11-21T08:24:23;99057.28;;;8.37;100.00
63552;BME280;49698;48.072;7.800;2023-11-21T08:26:51;99046.31;;;8.38;100.00
63552;BME280;49698;48.072;7.800;2023-11-21T08:29:19;99046.84;;;8.40;100.00
63552;BME280;49698;48.072;7.800;2023-11-21T08:31:47;99047.06;;;8.44;100.00
63552;BME280;49698;48.072;7.800;2023-11-21T08:34:15;99056.97;;;8.48;100.00
63552;BME280;49698;48.072;7.800;2023-11-21T08:36:44;99056.38;;;8.51;100.00
63552;BME280;49698;48.072;7.800;2023-11-21T08:39:13;99055.59;;;8.56;100.00
63552;BME280;49698;48.072;7.800;2023-11-21T08:41:41;99058.78;;;8.58;100.00
63552;BME280;49698;48.072;7.800;2023-11-21T08:44:09;99064.38;;;8.62;100.00
63552;BME280;49698;48.072;7.800;2023-11-21T08:46:37;99064.38;;;8.62;100.00
63552;BME280;49698;48.072;7.800;2023-11-21T08:49:06;99064.63;;;8.65;100.00
63552;BME280;49698;48.072;7.800;2023-11-21T08:51:34;99065.97;;;8.68;100.00
63552;BME280;49698;48.072;7.800;2023-11-21T08:54:04;99061.09;;;8.70;100.00
63552;BME280;49698;48.072;7.800;2023-11-21T08:56:34;99067.00;;;8.72;100.00
63552;BME280;49698;48.072;7.800;2023-11-21T08:59:03;99069.09;;;8.75;100.00
63552;BME280;49698;48.072;7.800;2023-11-21T09:01:31;99073.41;;;8.76;100.00
63552;BME280;49698;48.072;7.800;2023-11-21T09:03:59;99072.84;;;8.79;100.00
63552;BME280;49698;48.072;7.800;2023-11-21T09:06:27;99078.72;;;8.81;100.00
63552;BME280;49698;48.072;7.800;2023-11-21T09:08:55;99076.56;;;8.83;100.00
63552;BME280;49698;48.072;7.800;2023-11-21T09:11:25;99084.31;;;8.85;100.00
63552;BME280;49698;48.072;7.800;2023-11-21T09:13:58;99084.03;;;8.86;100.00
63552;BME280;49698;48.072;7.800;2023-11-21T09:16:26;99091.53;;;8.89;100.00
63552;BME280;49698;48.072;7.800;2023-11-21T09:18:54;99087.50;;;8.92;100.00
63552;BME280;49698;48.072;7.800;2023-11-21T09:21:22;99092.84;;;8.92;100.00
63552;BME280;49698;48.072;7.800;2023-11-21T09:23:51;99093.66;;;8.92;100.00
63552;BME280;49698;48.072;7.800;2023-11-21T09:26:19;99096.84;;;8.94;100.00
63552;BME280;49698;48.072;7.800;2023-11-21T09:28:48;99098.16;;;8.97;100.00
63552;BME280;49698;48.072;7.800;2023-11-21T09:31:17;99102.19;;;8.99;100.00
63552;BME280;49698;48.072;7.800;2023-11-21T09:33:49;99112.91;;;8.99;100.00
63552;BME280;49698;48.072;7.800;2023-11-21T09:36:17;99105.94;;;8.98;100.00
63552;BME280;49698;48.072;7.800;2023-11-21T09:38:45;99106.22;;;8.97;100.00
63552;BME280;49698;48.072;7.800;2023-11-21T09:41:21;99104.31;;;8.97;100.00
63552;BME280;49698;48.072;7.800;2023-11-21T09:43:54;99115.84;;;8.98;100.00
63552;BME280;49698;48.072;7.800;2023-11-21T09:46:25;99118.25;;;8.99;100.00
63552;BME280;49698;48.072;7.800;2023-11-21T09:48:58;99117.72;;;9.02;100.00
63552;BME280;49698;48.072;7.800;2023-11-21T09:51:29;99118.75;;;9.06;100.00
63552;BME280;49698;48.072;7.800;2023-11-21T09:54:01;99114.69;;;9.09;100.00
63552;BME280;49698;48.072;7.800;2023-11-21T09:56:33;99112.25;;;9.13;100.00
63552;BME280;49698;48.072;7.800;2023-11-21T09:59:03;99111.69;;;9.16;100.00
63552;BME280;49698;48.072;7.800;2023-11-21T10:01:33;99118.09;;;9.20;100.00
63552;BME280;49698;48.072;7.800;2023-11-21T10:04:04;99111.66;;;9.21;100.00
63552;BME280;49698;48.072;7.800;2023-11-21T10:06:38;99121.31;;;9.22;100.00
63552;BME280;49698;48.072;7.800;2023-11-21T10:09:07;99122.91;;;9.23;100.00
63552;BME280;49698;48.072;7.800;2023-11-21T10:11:39;99121.56;;;9.25;100.00
63552;BME280;49698;48.072;7.800;2023-11-21T10:14:10;99117.50;;;9.28;100.00
63552;BME280;49698;48.072;7.800;2023-11-21T10:16:40;99124.47;;;9.29;100.00
63552;BME280;49698;48.072;7.800;2023-11-21T10:19:08;99131.94;;;9.32;100.00
63552;BME280;49698;48.072;7.800;2023-11-21T10:21:37;99130.59;;;9.35;100.00
63552;BME280;49698;48.072;7.800;2023-11-21T10:24:06;99127.63;;;9.36;100.00
63552;BME280;49698;48.072;7.800;2023-11-21T10:26:34;99120.66;;;9.35;100.00
63552;BME280;49698;48.072;7.800;2023-11-21T10:29:06;99129.81;;;9.34;100.00
63552;BME280;49698;48.072;7.800;2023-11-21T10:31:35;99128.19;;;9.33;100.00
63552;BME280;49698;48.072;7.800;2023-11-21T10:34:14;99124.19;;;9.30;100.00
63552;BME280;49698;48.072;7.800;2023-11-21T10:39:17;99128.28;;;9.23;100.00
63552;BME280;49698;48.072;7.800;2023-11-21T10:41:46;99135.53;;;9.17;100.00
63552;BME280;49698;48.072;7.800;2023-11-21T10:44:14;99130.75;;;9.14;100.00
63552;BME280;49698;48.072;7.800;2023-11-21T10:46:47;99132.41;;;9.10;100.00
63552;BME280;49698;48.072;7.800;2023-11-21T10:49:17;99134.84;;;9.06;100.00
63552;BME280;49698;48.072;7.800;2023-11-21T10:51:45;99129.50;;;9.01;100.00
63552;BME280;49698;48.072;7.800;2023-11-21T10:54:18;99126.56;;;8.98;100.00
63552;BME280;49698;48.072;7.800;2023-11-21T10:56:48;99127.94;;;8.95;100.00
63552;BME280;49698;48.072;7.800;2023-11-21T10:59:17;99130.88;;;8.94;100.00
63552;BME280;49698;48.072;7.800;2023-11-21T11:01:47;99133.84;;;8.92;100.00
63552;BME280;49698;48.072;7.800;2023-11-21T11:04:17;99130.63;;;8.90;100.00
63552;BME280;49698;48.072;7.800;2023-11-21T11:06:46;99128.25;;;8.89;100.00
63552;BME280;49698;48.072;7.800;2023-11-21T11:09:19;99131.22;;;8.87;100.00
63552;BME280;49698;48.072;7.800;2023-11-21T11:11:47;99130.38;;;8.87;100.00
63552;BME280;49698;48.072;7.800;2023-11-21T11:14:16;99137.63;;;8.86;100.00
63552;BME280;49698;48.072;7.800;2023-11-21T11:16:46;99134.44;;;8.84;100.00
63552;BME280;49698;48.072;7.800;2023-11-21T11:19:15;99131.78;;;8.84;100.00
63552;BME280;49698;48.072;7.800;2023-11-21T11:21:46;99134.44;;;8.84;100.00
63552;BME280;49698;48.072;7.800;2023-11-21T11:24:32;99134.44;;;8.84;100.00
63552;BME280;49698;48.072;7.800;2023-11-21T11:27:06;99135.00;;;8.81;100.00
63552;BME280;49698;48.072;7.800;2023-11-21T11:29:39;99135.84;;;8.76;100.00
63552;BME280;49698;48.072;7.800;2023-11-21T11:32:13;99137.97;;;8.74;100.00
63552;BME280;49698;48.072;7.800;2023-11-21T11:34:44;99135.59;;;8.73;100.00
63552;BME280;49698;48.072;7.800;2023-11-21T11:37:13;99140.16;;;8.72;100.00
63552;BME280;49698;48.072;7.800;2023-11-21T11:39:49;99136.94;;;8.70;100.00
63552;BME280;49698;48.072;7.800;2023-11-21T11:42:18;99131.31;;;8.67;100.00
63552;BME280;49698;48.072;7.800;2023-11-21T11:44:47;99135.88;;;8.66;100.00
63552;BME280;49698;48.072;7.800;2023-11-21T11:47:22;99138.84;;;8.65;100.00
63552;BME280;49698;48.072;7.800;2023-11-21T11:50:00;99145.56;;;8.62;100.00
63552;BME280;49698;48.072;7.800;2023-11-21T11:52:34;99136.19;;;8.60;100.00
63552;BME280;49698;48.072;7.800;2023-11-21T11:55:03;99132.19;;;8.57;100.00
63552;BME280;49698;48.072;7.800;2023-11-21T11:57:32;99136.75;;;8.56;100.00
63552;BME280;49698;48.072;7.800;2023-11-21T12:00:08;99135.66;;;8.57;100.00
63552;BME280;49698;48.072;7.800;2023-11-21T12:02:37;99135.13;;;8.61;100.00
63552;BME280;49698;48.072;7.800;2023-11-21T12:05:09;99138.84;;;8.65;100.00
63552;BME280;49698;48.072;7.800;2023-11-21T12:07:48;99132.94;;;8.68;100.00
63552;BME280;49698;48.072;7.800;2023-11-21T12:10:18;99139.34;;;8.72;100.00
63552;BME280;49698;48.072;7.800;2023-11-21T12:12:47;99136.63;;;8.77;100.00
63552;BME280;49698;48.072;7.800;2023-11-21T12:15:17;99139.28;;;8.82;100.00
63552;BME280;49698;48.072;7.800;2023-11-21T12:17:46;99131.22;;;8.87;100.00
63552;BME280;49698;48.072;7.800;2023-11-21T12:20:14;99124.78;;;8.88;100.00
63552;BME280;49698;48.072;7.800;2023-11-21T12:22:45;99126.91;;;8.91;100.00
63552;BME280;49698;48.072;7.800;2023-11-21T12:25:17;99127.16;;;8.95;100.00
63552;BME280;49698;48.072;7.800;2023-11-21T12:27:47;99127.41;;;8.98;100.00
63552;BME280;49698;48.072;7.800;2023-11-21T12:30:17;99132.19;;;9.01;100.00
63552;BME280;49698;48.072;7.800;2023-11-21T12:32:50;99134.56;;;9.08;100.00
63552;BME280;49698;48.072;7.800;2023-11-21T12:35:19;99137.16;;;9.18;100.00
63552;BME280;49698;48.072;7.800;2023-11-21T12:37:48;99134.69;;;9.27;100.00
63552;BME280;49698;48.072;7.800;2023-11-21T12:40:18;99133.00;;;9.36;100.00
63552;BME280;49698;48.072;7.800;2023-11-21T12:42:47;99139.13;;;9.42;100.00
63552;BME280;49698;48.072;7.800;2023-11-21T12:45:19;99132.91;;;9.46;100.00
63552;BME280;49698;48.072;7.800;2023-11-21T12:47:47;99140.09;;;9.51;100.00
63552;BME280;49698;48.072;7.800;2023-11-21T12:50:18;99136.34;;;9.52;100.00
63552;BME280;49698;48.072;7.800;2023-11-21T12:52:50;99142.53;;;9.52;100.00
63552;BME280;49698;48.072;7.800;2023-11-21T12:55:21;99146.28;;;9.51;100.00
63552;BME280;49698;48.072;7.800;2023-11-21T12:57:49;99148.44;;;9.49;100.00
63552;BME280;49698;48.072;7.800;2023-11-21T13:00:28;99150.59;;;9.47;100.00
63552;BME280;49698;48.072;7.800;2023-11-21T13:02:58;99144.44;;;9.47;100.00
63552;BME280;49698;48.072;7.800;2023-11-21T13:05:27;99143.09;;;9.44;100.00
63552;BME280;49698;48.072;7.800;2023-11-21T13:07:56;99150.91;;;9.41;100.00
63552;BME280;49698;48.072;7.800;2023-11-21T13:10:26;99145.34;;;9.37;100.00
63552;BME280;49698;48.072;7.800;2023-11-21T13:12:57;99150.16;;;9.35;100.00
63552;BME280;49698;48.072;7.800;2023-11-21T13:15:26;99155.00;;;9.33;100.00
63552;BME280;49698;48.072;7.800;2023-11-21T13:17:54;99154.19;;;9.32;100.00
63552;BME280;49698;48.072;7.800;2023-11-21T13:20:24;99161.44;;;9.32;100.00
63552;BME280;49698;48.072;7.800;2023-11-21T13:22:52;99157.19;;;9.31;100.00
63552;BME280;49698;48.072;7.800;2023-11-21T13:25:23;99161.19;;;9.34;100.00
63552;BME280;49698;48.072;7.800;2023-11-21T13:27:55;99168.66;;;9.37;100.00
63552;BME280;49698;48.072;7.800;2023-11-21T13:30:23;99169.97;;;9.39;100.00
63552;BME280;49698;48.072;7.800;2023-11-21T13:32:53;99169.97;;;9.39;100.00
63552;BME280;49698;48.072;7.800;2023-11-21T13:35:23;99174.56;;;9.39;100.00
63552;BME280;49698;48.072;7.800;2023-11-21T13:38:02;99179.13;;;9.38;100.00
63552;BME280;49698;48.072;7.800;2023-11-21T13:40:32;99181.81;;;9.38;100.00
63552;BME280;49698;48.072;7.800;2023-11-21T13:43:07;99192.53;;;9.38;100.00